Latest Weather Observations for Fowlers Gap

IDN60801

Issued at 11:32 am EST Saturday 4 July 2015 (issued every 30 minutes, with the page automatically refreshed every 10 minutes)

About weather observations | Map of weather stations | Latest weather observations for NSW | Other Formats
Station Details ID: 046128 Name: FOWLERS GAP AWS Lat: -31.09 Lon: 141.70 Height: 181.0 m
Data from the previous 72 hours. | See also: Recent months at Fowlers Gap
Date/Time
EST
Temp
°C
App
Temp
°C
Dew
Point
Rel
Hum
%
Delta-T
°C
Wind Press
QNH
hPa
Press
MSL
hPa
Rain
since 9 am
mm
Dir
 
Spd
km/h
Gust
km/h
Spd
kts
Gust
kts
04/11:30am 9.5 6.7 2.1 60 3.1 ENE 6 9 3 5 1025.6 1025.8 0.0
04/11:00am 9.2 6.2 1.9 60 3.1 ENE 7 11 4 6 1025.8 1026.0 0.0
04/10:30am 8.6 7.2 3.4 70 2.3 CALM 0 0 0 0 1026.0 1026.2 0.0
04/10:00am 7.6 6.2 3.3 74 1.8 CALM 0 0 0 0 1026.2 1026.4 0.0
04/09:30am 6.5 5.0 2.9 78 1.5 CALM 0 6 0 3 1025.9 1026.1 0.0
04/09:00am 5.3 3.8 3.0 85 1.0 CALM 0 0 0 0 1025.9 1026.1 0.2
04/08:30am 4.3 2.0 2.7 89 0.7 SW 4 7 2 4 1025.8 1026.0 0.2
04/08:00am 4.1 2.2 2.8 91 0.5 WNW 2 7 1 4 1025.5 1025.7 0.2
04/07:30am 3.8 2.2 2.5 91 0.5 CALM 0 0 0 0 1025.2 1025.4 0.2
04/07:00am 3.7 1.7 2.5 92 0.5 WSW 2 7 1 4 1024.7 1024.9 0.2
04/06:30am 3.7 2.1 2.5 92 0.5 CALM 0 0 0 0 1024.4 1024.6 0.2
04/06:00am 3.5 1.9 2.3 92 0.5 CALM 0 0 0 0 1024.2 1024.4 0.2
04/05:30am 3.7 2.1 2.5 92 0.5 CALM 0 0 0 0 1024.1 1024.3 0.2
04/05:00am 3.8 1.1 2.6 92 0.5 ENE 6 6 3 3 1024.2 1024.4 0.2
04/04:30am 4.0 2.4 2.5 90 0.6 CALM 0 0 0 0 1024.4 1024.6 0.2
04/04:00am 4.8 3.2 2.7 86 0.9 CALM 0 0 0 0 1024.7 1024.9 0.2
04/03:30am 5.1 3.6 2.8 85 1.0 CALM 0 0 0 0 1024.8 1025.0 0.2
04/03:00am 5.3 3.7 2.7 83 1.1 CALM 0 0 0 0 1024.9 1025.1 0.2
04/02:30am 5.6 2.9 2.9 83 1.1 SSW 6 7 3 4 1025.3 1025.5 0.2
04/02:00am 5.6 2.9 2.8 82 1.2 SSE 6 7 3 4 1025.3 1025.5 0.2
04/01:30am 5.7 4.1 2.4 79 1.4 CALM 0 0 0 0 1025.4 1025.6 0.2
04/01:00am 6.1 4.1 2.2 76 1.6 ENE 2 6 1 3 1025.5 1025.7 0.2
04/12:30am 6.5 3.5 2.0 73 1.8 ENE 7 9 4 5 1025.7 1025.9 0.2
04/12:00am 7.1 3.7 1.8 69 2.2 NE 9 11 5 6 1025.9 1026.1 0.2
 
Date/Time
EST
Temp
°C
App
Temp
°C
Dew
Point
Rel
Hum
%
Delta-T
°C
Wind Press
QNH
hPa
Press
MSL
hPa
Rain
since 9 am
mm
Dir
 
Spd
km/h
Gust
km/h
Spd
kts
Gust
kts
03/11:30pm 7.9 4.5 2.0 66 2.5 E 9 13 5 7 1026.0 1026.2 0.2
03/11:00pm 6.3 4.0 2.6 77 1.5 S 4 7 2 4 1026.2 1026.4 0.2
03/10:30pm 6.0 3.7 3.0 81 1.3 SW 4 6 2 3 1026.3 1026.5 0.2
03/10:00pm 6.0 3.1 2.8 80 1.3 S 7 9 4 5 1026.7 1026.9 0.2
03/09:30pm 6.2 4.8 3.4 82 1.2 CALM 0 0 0 0 1026.8 1027.0 0.2
03/09:00pm 6.6 4.0 3.0 78 1.5 S 6 6 3 3 1026.8 1027.0 0.2
03/08:30pm 6.8 5.0 3.2 78 1.5 S 2 7 1 4 1026.8 1027.0 0.2
03/08:00pm 7.6 5.0 3.1 73 1.9 S 6 7 3 4 1026.8 1027.0 0.2
03/07:30pm 8.2 5.3 2.7 68 2.3 SSE 7 9 4 5 1026.4 1026.6 0.2
03/07:00pm 9.6 6.3 2.7 62 3.0 SE 9 11 5 6 1026.5 1026.8 0.2
03/06:30pm 10.0 6.8 2.8 61 3.1 SE 9 11 5 6 1026.3 1026.5 0.2
03/06:00pm 11.1 7.8 2.4 55 3.7 SE 9 11 5 6 1026.2 1026.4 0.2
03/05:30pm 12.3 9.0 2.2 50 4.4 SSE 9 11 5 6 1026.0 1026.2 0.2
03/05:00pm 13.1 9.3 1.8 46 4.9 ESE 11 15 6 8 1025.8 1026.0 0.2
03/04:30pm 13.5 10.1 1.8 45 5.1 ESE 9 15 5 8 1025.6 1025.8 0.2
03/04:00pm 13.8 9.6 1.5 43 5.3 SSE 13 24 7 13 1025.7 1025.9 0.2
03/03:30pm 13.8 10.0 1.8 44 5.3 S 11 17 6 9 1025.8 1026.0 0.2
03/03:00pm 13.9 10.6 2.5 46 5.0 SSW 9 17 5 9 1026.2 1026.4 0.2
03/02:30pm 13.5 10.1 2.1 46 5.0 SE 9 17 5 9 1026.4 1026.6 0.2
03/02:00pm 12.8 9.3 1.5 46 4.8 SE 9 15 5 8 1026.9 1027.1 0.2
03/01:30pm 12.9 9.8 1.6 46 4.9 SE 7 17 4 9 1027.6 1027.8 0.0
03/01:00pm 12.8 10.0 2.1 48 4.6 SW 6 9 3 5 1027.9 1028.1 0.0
03/12:30pm 12.8 9.8 1.8 47 4.8 NE 7 11 4 6 1028.3 1028.5 0.0
03/12:00pm 12.0 8.3 2.2 51 4.2 ENE 11 15 6 8 1028.8 1029.0 0.0
03/11:30am 11.5 7.4 2.0 52 4.1 ENE 13 15 7 8 1029.1 1029.3 0.0
03/11:00am 11.1 7.8 2.4 55 3.7 E 9 13 5 7 1029.5 1029.7 0.0
03/10:30am 10.9 8.0 2.5 56 3.6 ENE 7 9 4 5 1029.8 1030.0 0.0
03/10:00am 9.6 6.7 2.7 62 2.9 NNE 7 11 4 6 1029.6 1029.8 0.0
03/09:30am 7.3 4.8 3.9 79 1.5 WSW 6 7 3 4 1029.5 1029.7 0.0
03/09:00am 5.4 2.3 3.4 87 0.8 SW 9 13 5 7 1029.5 1029.7 0.0
03/08:30am 4.7 2.9 3.2 90 0.6 WSW 2 6 1 3 1029.1 1029.3 0.0
03/08:00am 4.3 1.5 3.1 92 0.5 SSW 7 9 4 5 1028.7 1028.9 0.0
03/07:30am 3.3 0.5 2.3 93 0.4 SW 6 7 3 4 1028.1 1028.3 0.0
03/07:00am 4.1 0.7 2.1 87 0.8 SSE 9 15 5 8 1027.8 1028.0 0.0
03/06:30am 5.2 2.2 3.9 91 0.6 SE 9 13 5 7 1027.6 1027.8 0.0
03/06:00am 5.4 1.7 4.2 92 0.5 SSE 13 15 7 8 1027.4 1027.6 0.0
03/05:30am 4.9 1.4 3.6 91 0.5 SSE 11 13 6 7 1027.5 1027.7 0.0
03/05:00am 5.0 2.3 3.7 91 0.5 SSE 7 11 4 6 1027.6 1027.8 0.0
03/04:30am 5.9 2.7 5.2 95 0.3 SSE 11 15 6 8 1027.8 1028.0 0.0
03/04:00am 4.9 2.3 4.2 95 0.3 SSE 7 9 4 5 1028.0 1028.2 0.0
03/03:30am 5.5 2.2 4.8 95 0.3 SSE 11 13 6 7 1028.0 1028.2 0.0
03/03:00am 5.8 2.9 4.9 94 0.4 SSE 9 11 5 6 1028.1 1028.3 0.0
03/02:30am 6.1 3.7 5.1 93 0.4 SSE 7 11 4 6 1028.1 1028.3 0.0
03/02:00am 6.7 4.6 5.7 93 0.4 SE 6 7 3 4 1028.3 1028.5 0.0
03/01:30am 6.9 4.2 5.8 93 0.5 SE 9 11 5 6 1028.3 1028.5 0.0
03/01:00am 6.9 4.6 5.7 92 0.5 SE 7 9 4 5 1028.5 1028.7 0.0
03/12:30am 7.5 5.3 6.0 90 0.7 SSE 7 9 4 5 1028.6 1028.8 0.0
03/12:00am 8.0 5.4 6.1 88 0.9 SSE 9 11 5 6 1028.6 1028.8 0.0
 
Date/Time
EST
Temp
°C
App
Temp
°C
Dew
Point
Rel
Hum
%
Delta-T
°C
Wind Press
QNH
hPa
Press
MSL
hPa
Rain
since 9 am
mm
Dir
 
Spd
km/h
Gust
km/h
Spd
kts
Gust
kts
02/11:30pm 8.9 6.0 6.7 86 1.0 SE 11 13 6 7 1028.8 1029.0 0.0
02/11:00pm 9.2 6.7 6.6 84 1.2 SSE 9 9 5 5 1029.0 1029.2 0.0
02/10:30pm 9.9 7.8 6.8 81 1.5 SE 7 9 4 5 1029.0 1029.2 0.0
02/10:00pm 10.9 8.1 6.8 76 1.9 SSE 11 13 6 7 1028.9 1029.1 0.0
02/09:30pm 12.3 9.6 7.2 71 2.5 SSE 11 13 6 7 1029.0 1029.2 0.0
02/09:00pm 12.5 10.1 7.0 69 2.7 SSE 9 11 5 6 1028.8 1029.0 0.0
02/08:30pm 12.8 10.4 6.8 67 2.9 SE 9 15 5 8 1028.7 1028.9 0.0
02/08:00pm 12.8 10.0 6.8 67 2.9 SSE 11 13 6 7 1028.4 1028.6 0.0
02/07:30pm 13.3 10.8 6.6 64 3.2 SSE 9 11 5 6 1028.0 1028.2 0.0
02/07:00pm 14.0 11.5 6.4 60 3.7 SSE 9 11 5 6 1027.7 1027.9 0.0
02/06:30pm 14.7 11.6 5.5 54 4.4 SE 11 15 6 8 1027.4 1027.6 0.0
02/06:00pm 14.8 11.3 5.3 53 4.5 SSE 13 17 7 9 1027.2 1027.4 0.0
02/05:30pm 15.3 11.4 5.2 51 4.8 S 15 20 8 11 1027.1 1027.3 0.0
02/05:00pm 15.6 11.6 4.9 49 5.1 SSW 15 22 8 12 1026.9 1027.1 0.0
02/04:30pm 15.9 10.8 4.3 46 5.5 S 20 26 11 14 1026.8 1027.0 0.0
02/04:00pm 16.5 11.7 4.5 45 5.7 SSE 19 28 10 15 1026.9 1027.1 0.0
02/03:30pm 16.3 11.8 4.4 45 5.6 SSE 17 20 9 11 1026.8 1027.0 0.0
02/03:00pm 16.0 11.9 4.1 45 5.5 S 15 24 8 13 1027.0 1027.2 0.0
02/02:30pm 16.1 12.1 5.1 48 5.3 S 15 24 8 13 1027.0 1027.2 0.0
02/02:00pm 15.0 11.1 3.5 46 5.3 SE 13 20 7 11 1027.1 1027.3 0.0
02/01:30pm 14.8 10.6 3.9 48 5.0 SSE 15 20 8 11 1027.6 1027.8 0.0
02/01:00pm 14.2 10.8 3.9 50 4.7 SSE 11 15 6 8 1027.9 1028.1 0.0
02/12:30pm 13.8 9.9 3.6 50 4.7 SSE 13 17 7 9 1028.4 1028.6 0.0
02/12:00pm 13.5 10.1 4.1 53 4.3 S 11 17 6 9 1028.8 1029.0 0.0
02/11:30am 12.7 8.5 3.6 54 4.1 SSE 15 20 8 11 1029.1 1029.3 0.0
02/11:00am 12.4 8.3 4.1 57 3.8 SSE 15 19 8 10 1029.1 1029.3 0.0
02/10:30am 11.1 8.3 5.0 66 2.8 SW 9 13 5 7 1029.3 1029.5 0.0
02/10:00am 9.0 5.7 4.6 74 2.0 SW 11 13 6 7 1029.3 1029.5 0.0
02/09:30am 7.2 4.6 4.0 80 1.4 W 7 11 4 6 1029.2 1029.4 0.0
02/09:00am 4.9 2.6 2.9 87 0.8 W 4 7 2 4 1029.3 1029.5 0.0
02/08:30am 3.6 1.5 2.0 89 0.6 WSW 2 7 1 4 1029.0 1029.2 0.0
02/08:00am 2.8 0.0 1.9 94 0.4 W 6 9 3 5 1028.8 1029.0 0.0
02/07:30am 2.2 -0.7 1.6 96 0.2 SW 6 7 3 4 1028.1 1028.3 0.0
02/07:00am 2.5 0.8 1.9 96 0.2 CALM 0 0 0 0 1027.7 1027.9 0.0
02/06:30am 2.4 0.7 1.8 96 0.2 CALM 0 0 0 0 1027.4 1027.6 0.0
02/06:00am 3.3 1.7 2.7 96 0.2 CALM 0 0 0 0 1026.9 1027.1 0.0
02/05:30am 2.9 1.3 2.2 95 0.3 CALM 0 0 0 0 1026.9 1027.1 0.0
02/05:00am 3.4 1.8 2.7 95 0.3 CALM 0 0 0 0 1027.0 1027.2 0.0
02/04:30am 3.7 2.2 3.0 95 0.3 CALM 0 0 0 0 1027.2 1027.4 0.0
02/04:00am 3.8 2.3 3.1 95 0.3 CALM 0 0 0 0 1027.3 1027.5 0.0
02/03:30am 4.2 2.8 3.5 95 0.3 CALM 0 0 0 0 1027.2 1027.4 0.0
02/03:00am 4.2 2.8 3.5 95 0.3 CALM 0 0 0 0 1027.9 1028.1 0.0
02/02:30am 4.1 2.7 3.4 95 0.3 CALM 0 0 0 0 1028.1 1028.3 0.0
02/02:00am 4.3 2.9 3.4 94 0.4 CALM 0 0 0 0 1027.9 1028.1 0.0
02/01:30am 4.7 3.3 3.8 94 0.4 CALM 0 0 0 0 1027.7 1027.9 0.0
02/01:00am 4.9 3.6 4.0 94 0.4 CALM 0 2 0 1 1028.0 1028.2 0.0
02/12:30am 5.1 3.8 3.9 92 0.5 CALM 0 0 0 0 1028.0 1028.2 0.0
02/12:00am 5.4 2.9 3.9 90 0.6 W 6 9 3 5 1028.0 1028.2 0.0
 
Date/Time
EST
Temp
°C
App
Temp
°C
Dew
Point
Rel
Hum
%
Delta-T
°C
Wind Press
QNH
hPa
Press
MSL
hPa
Rain
since 9 am
mm
Dir
 
Spd
km/h
Gust
km/h
Spd
kts
Gust
kts
01/11:30pm 5.9 3.9 4.2 89 0.7 WNW 4 9 2 5 1028.2 1028.4 0.0
01/11:00pm 6.2 4.2 4.2 87 0.9 WNW 4 6 2 3 1028.1 1028.3 0.0
01/10:30pm 6.5 5.2 4.3 86 1.0 CALM 0 0 0 0 1028.1 1028.3 0.0
01/10:00pm 7.1 4.7 4.4 83 1.2 SSW 6 9 3 5 1028.6 1028.8 0.0
01/09:30pm 7.1 5.2 4.9 86 1.0 WSW 4 9 2 5 1028.6 1028.8 0.0
01/09:00pm 7.4 6.3 5.0 85 1.1 CALM 0 0 0 0 1028.4 1028.6 0.0
01/08:30pm 8.0 6.9 5.1 82 1.3 CALM 0 0 0 0 1028.2 1028.4 0.0
01/08:00pm 8.6 7.7 5.9 83 1.2 CALM 0 0 0 0 1027.9 1028.1 0.0
01/07:30pm 9.0 7.2 5.6 79 1.6 WSW 4 7 2 4 1027.8 1028.0 0.0
01/07:00pm 9.5 7.4 5.7 77 1.7 WSW 6 11 3 6 1027.8 1028.0 0.0
01/06:30pm 9.8 9.0 6.3 79 1.6 CALM 0 0 0 0 1027.3 1027.5 0.0
01/06:00pm 10.7 9.8 5.9 72 2.2 CALM 0 0 0 0 1027.2 1027.4 0.0
01/05:30pm 11.7 10.2 5.1 64 3.1 SE 2 6 1 3 1027.1 1027.3 0.0
01/05:00pm 12.1 9.6 3.6 56 3.8 SSE 6 9 3 5 1027.2 1027.4 0.0
01/04:30pm 12.7 9.4 2.3 49 4.6 SSE 9 13 5 7 1027.0 1027.2 0.0
01/04:00pm 13.0 9.3 2.3 48 4.7 SW 11 15 6 8 1027.2 1027.4 0.0
01/03:30pm 13.2 9.6 2.7 49 4.7 SSE 11 17 6 9 1027.0 1027.2 0.0
01/03:00pm 13.2 9.9 2.4 48 4.7 S 9 17 5 9 1027.4 1027.6 0.0
01/02:30pm 13.2 10.0 3.0 50 4.6 SE 9 15 5 8 1027.9 1028.1 0.0
01/02:00pm 13.0 9.3 2.5 49 4.6 SE 11 17 6 9 1028.3 1028.5 0.0
01/01:30pm 12.5 8.5 2.7 51 4.3 SSE 13 20 7 11 1028.6 1028.8 0.0
01/01:00pm 12.4 8.3 2.3 50 4.4 S 13 19 7 10 1029.4 1029.6 0.0
01/12:30pm 11.9 7.9 2.6 53 4.1 S 13 19 7 10 1030.0 1030.2 0.0
01/12:00pm 11.3 8.3 2.3 54 3.9 SE 7 15 4 8 1030.2 1030.4 0.0

Other Formats:

Comma delimited format used in spreadsheet applications
http://www.bom.gov.au/fwo/IDN60801/IDN60801.94686.axf

JavaScript Object Notation format (JSON) in row-major order
http://www.bom.gov.au/fwo/IDN60801/IDN60801.94686.json